sensor_id;sensor_type;location;lat;lon;timestamp;temperature;humidity
9762;DHT22;4920;49.594;11.022;2023-05-10T00:00:48;15.30;98.50
9762;DHT22;4920;49.594;11.022;2023-05-10T00:03:16;15.20;99.60
9762;DHT22;4920;49.594;11.022;2023-05-10T00:05:45;15.20;99.90
9762;DHT22;4920;49.594;11.022;2023-05-10T00:08:14;15.20;99.90
9762;DHT22;4920;49.594;11.022;2023-05-10T00:10:43;15.20;99.90
9762;DHT22;4920;49.594;11.022;2023-05-10T00:13:11;15.10;99.90
9762;DHT22;4920;49.594;11.022;2023-05-10T00:15:41;15.10;99.90
9762;DHT22;4920;49.594;11.022;2023-05-10T00:18:10;15.10;99.90
9762;DHT22;4920;49.594;11.022;2023-05-10T00:20:39;15.00;99.90
9762;DHT22;4920;49.594;11.022;2023-05-10T00:23:08;14.90;99.90
9762;DHT22;4920;49.594;11.022;2023-05-10T00:25:36;14.90;99.90
9762;DHT22;4920;49.594;11.022;2023-05-10T00:28:05;14.80;99.90
9762;DHT22;4920;49.594;11.022;2023-05-10T00:30:34;14.60;99.90
9762;DHT22;4920;49.594;11.022;2023-05-10T00:33:04;14.60;99.90
9762;DHT22;4920;49.594;11.022;2023-05-10T00:35:33;14.50;99.90
9762;DHT22;4920;49.594;11.022;2023-05-10T00:38:01;14.40;99.90
9762;DHT22;4920;49.594;11.022;2023-05-10T00:40:30;14.30;99.90
9762;DHT22;4920;49.594;11.022;2023-05-10T00:43:04;14.20;99.90
9762;DHT22;4920;49.594;11.022;2023-05-10T00:45:35;14.10;99.90
9762;DHT22;4920;49.594;11.022;2023-05-10T00:48:07;14.00;99.90
9762;DHT22;4920;49.594;11.022;2023-05-10T00:50:37;13.90;99.90
9762;DHT22;4920;49.594;11.022;2023-05-10T00:53:07;13.90;99.90
9762;DHT22;4920;49.594;11.022;2023-05-10T00:55:37;13.80;99.90
9762;DHT22;4920;49.594;11.022;2023-05-10T00:58:06;13.70;99.90
9762;DHT22;4920;49.594;11.022;2023-05-10T01:00:35;13.60;99.90
9762;DHT22;4920;49.594;11.022;2023-05-10T01:03:07;13.50;99.90
9762;DHT22;4920;49.594;11.022;2023-05-10T01:05:36;13.40;99.90
9762;DHT22;4920;49.594;11.022;2023-05-10T01:08:04;13.30;99.90
9762;DHT22;4920;49.594;11.022;2023-05-10T01:10:34;13.30;99.90
9762;DHT22;4920;49.594;11.022;2023-05-10T01:13:03;13.20;99.90
9762;DHT22;4920;49.594;11.022;2023-05-10T01:15:32;13.20;99.90
9762;DHT22;4920;49.594;11.022;2023-05-10T01:18:01;13.20;99.90
9762;DHT22;4920;49.594;11.022;2023-05-10T01:20:37;13.20;99.90
9762;DHT22;4920;49.594;11.022;2023-05-10T01:23:28;13.20;99.90
9762;DHT22;4920;49.594;11.022;2023-05-10T01:26:26;13.10;99.90
9762;DHT22;4920;49.594;11.022;2023-05-10T01:29:24;13.10;99.90
9762;DHT22;4920;49.594;11.022;2023-05-10T01:32:14;13.10;99.90
9762;DHT22;4920;49.594;11.022;2023-05-10T01:34:52;13.00;99.90
9762;DHT22;4920;49.594;11.022;2023-05-10T01:37:31;13.00;99.90
9762;DHT22;4920;49.594;11.022;2023-05-10T01:40:08;13.00;99.90
9762;DHT22;4920;49.594;11.022;2023-05-10T01:42:44;13.00;99.90
9762;DHT22;4920;49.594;11.022;2023-05-10T01:45:20;13.00;99.90
9762;DHT22;4920;49.594;11.022;2023-05-10T01:47:58;13.00;99.90
9762;DHT22;4920;49.594;11.022;2023-05-10T01:50:31;13.00;99.90
9762;DHT22;4920;49.594;11.022;2023-05-10T01:53:02;13.00;99.90
9762;DHT22;4920;49.594;11.022;2023-05-10T01:55:34;13.00;99.90
9762;DHT22;4920;49.594;11.022;2023-05-10T01:58:07;13.00;99.90
9762;DHT22;4920;49.594;11.022;2023-05-10T02:00:40;13.00;99.90
9762;DHT22;4920;49.594;11.022;2023-05-10T02:03:13;13.00;99.90
9762;DHT22;4920;49.594;11.022;2023-05-10T02:05:43;13.00;99.90
9762;DHT22;4920;49.594;11.022;2023-05-10T02:08:14;13.00;99.90
9762;DHT22;4920;49.594;11.022;2023-05-10T02:10:45;13.00;99.90
9762;DHT22;4920;49.594;11.022;2023-05-10T02:13:16;13.10;99.90
9762;DHT22;4920;49.594;11.022;2023-05-10T02:15:48;13.10;99.90
9762;DHT22;4920;49.594;11.022;2023-05-10T02:18:18;13.10;99.90
9762;DHT22;4920;49.594;11.022;2023-05-10T02:20:48;13.10;99.90
9762;DHT22;4920;49.594;11.022;2023-05-10T02:23:17;13.10;99.90
9762;DHT22;4920;49.594;11.022;2023-05-10T02:25:48;13.10;99.90
9762;DHT22;4920;49.594;11.022;2023-05-10T02:28:18;13.10;99.90
9762;DHT22;4920;49.594;11.022;2023-05-10T02:30:48;13.10;99.90
9762;DHT22;4920;49.594;11.022;2023-05-10T02:33:20;13.10;99.90
9762;DHT22;4920;49.594;11.022;2023-05-10T02:35:52;13.10;99.90
9762;DHT22;4920;49.594;11.022;2023-05-10T02:38:22;13.10;99.90
9762;DHT22;4920;49.594;11.022;2023-05-10T02:40:52;13.10;99.90
9762;DHT22;4920;49.594;11.022;2023-05-10T02:43:23;13.20;99.90
9762;DHT22;4920;49.594;11.022;2023-05-10T02:45:53;13.20;99.90
9762;DHT22;4920;49.594;11.022;2023-05-10T02:48:23;13.20;99.90
9762;DHT22;4920;49.594;11.022;2023-05-10T02:50:56;13.20;99.90
9762;DHT22;4920;49.594;11.022;2023-05-10T02:53:31;13.20;99.90
9762;DHT22;4920;49.594;11.022;2023-05-10T02:56:05;13.20;99.90
9762;DHT22;4920;49.594;11.022;2023-05-10T02:58:35;13.20;99.90
9762;DHT22;4920;49.594;11.022;2023-05-10T03:01:04;13.20;99.90
9762;DHT22;4920;49.594;11.022;2023-05-10T03:03:36;13.30;99.90
9762;DHT22;4920;49.594;11.022;2023-05-10T03:06:05;13.30;99.90
9762;DHT22;4920;49.594;11.022;2023-05-10T03:08:33;13.40;99.90
9762;DHT22;4920;49.594;11.022;2023-05-10T03:11:21;13.50;99.90
9762;DHT22;4920;49.594;11.022;2023-05-10T03:13:59;13.50;99.90
9762;DHT22;4920;49.594;11.022;2023-05-10T03:16:38;13.50;99.90
9762;DHT22;4920;49.594;11.022;2023-05-10T03:19:17;13.60;99.90
9762;DHT22;4920;49.594;11.022;2023-05-10T03:21:51;13.50;99.90
9762;DHT22;4920;49.594;11.022;2023-05-10T03:24:21;13.50;99.90
9762;DHT22;4920;49.594;11.022;2023-05-10T03:26:55;13.50;99.90
9762;DHT22;4920;49.594;11.022;2023-05-10T03:29:26;13.60;99.90
9762;DHT22;4920;49.594;11.022;2023-05-10T03:31:55;13.50;99.90
9762;DHT22;4920;49.594;11.022;2023-05-10T03:34:25;13.50;99.90
9762;DHT22;4920;49.594;11.022;2023-05-10T03:36:54;13.50;99.90
9762;DHT22;4920;49.594;11.022;2023-05-10T03:39:24;13.50;99.90
9762;DHT22;4920;49.594;11.022;2023-05-10T03:41:57;13.60;99.90
9762;DHT22;4920;49.594;11.022;2023-05-10T03:44:25;13.60;99.90
9762;DHT22;4920;49.594;11.022;2023-05-10T03:46:54;13.60;99.90
9762;DHT22;4920;49.594;11.022;2023-05-10T03:49:25;13.60;99.90
9762;DHT22;4920;49.594;11.022;2023-05-10T03:51:54;13.60;99.90
9762;DHT22;4920;49.594;11.022;2023-05-10T03:54:26;13.60;99.90
9762;DHT22;4920;49.594;11.022;2023-05-10T03:56:55;13.60;99.90
9762;DHT22;4920;49.594;11.022;2023-05-10T03:59:24;13.70;99.90
9762;DHT22;4920;49.594;11.022;2023-05-10T04:01:53;13.70;99.90
9762;DHT22;4920;49.594;11.022;2023-05-10T04:04:22;13.70;99.90
9762;DHT22;4920;49.594;11.022;2023-05-10T04:06:53;13.70;99.90
9762;DHT22;4920;49.594;11.022;2023-05-10T04:09:22;13.70;99.90
9762;DHT22;4920;49.594;11.022;2023-05-10T04:11:51;13.80;99.90
9762;DHT22;4920;49.594;11.022;2023-05-10T04:14:19;13.80;99.90
9762;DHT22;4920;49.594;11.022;2023-05-10T04:16:48;13.80;99.90
9762;DHT22;4920;49.594;11.022;2023-05-10T04:19:17;13.90;99.90
9762;DHT22;4920;49.594;11.022;2023-05-10T04:21:48;13.80;99.90
9762;DHT22;4920;49.594;11.022;2023-05-10T04:24:19;13.90;99.90
9762;DHT22;4920;49.594;11.022;2023-05-10T04:27:15;13.80;99.90
9762;DHT22;4920;49.594;11.022;2023-05-10T04:29:46;13.90;99.90
9762;DHT22;4920;49.594;11.022;2023-05-10T04:32:15;13.80;99.90
9762;DHT22;4920;49.594;11.022;2023-05-10T04:34:45;13.90;99.90
9762;DHT22;4920;49.594;11.022;2023-05-10T04:37:14;13.90;99.90
9762;DHT22;4920;49.594;11.022;2023-05-10T04:39:45;13.90;99.90
9762;DHT22;4920;49.594;11.022;2023-05-10T04:42:16;13.90;99.90
9762;DHT22;4920;49.594;11.022;2023-05-10T04:44:45;13.90;99.90
9762;DHT22;4920;49.594;11.022;2023-05-10T04:47:43;13.90;99.90
9762;DHT22;4920;49.594;11.022;2023-05-10T04:50:15;13.90;99.90
9762;DHT22;4920;49.594;11.022;2023-05-10T04:52:45;13.90;99.90
9762;DHT22;4920;49.594;11.022;2023-05-10T04:55:16;13.90;99.90
9762;DHT22;4920;49.594;11.022;2023-05-10T04:57:48;14.00;99.90
9762;DHT22;4920;49.594;11.022;2023-05-10T05:00:17;13.90;99.90
9762;DHT22;4920;49.594;11.022;2023-05-10T05:02:46;13.90;99.90
9762;DHT22;4920;49.594;11.022;2023-05-10T05:05:18;13.90;99.90
9762;DHT22;4920;49.594;11.022;2023-05-10T05:07:46;13.90;99.90
9762;DHT22;4920;49.594;11.022;2023-05-10T05:10:17;13.90;99.90
9762;DHT22;4920;49.594;11.022;2023-05-10T05:12:49;13.90;99.90
9762;DHT22;4920;49.594;11.022;2023-05-10T05:15:21;13.90;99.90
9762;DHT22;4920;49.594;11.022;2023-05-10T05:17:51;13.90;99.90
9762;DHT22;4920;49.594;11.022;2023-05-10T05:20:20;14.00;99.90
9762;DHT22;4920;49.594;11.022;2023-05-10T05:22:50;14.00;99.90
9762;DHT22;4920;49.594;11.022;2023-05-10T05:25:20;14.10;99.90
9762;DHT22;4920;49.594;11.022;2023-05-10T05:27:49;14.20;99.90
9762;DHT22;4920;49.594;11.022;2023-05-10T05:30:18;14.30;99.90
9762;DHT22;4920;49.594;11.022;2023-05-10T05:32:47;14.40;99.90
9762;DHT22;4920;49.594;11.022;2023-05-10T05:35:20;14.40;99.90
9762;DHT22;4920;49.594;11.022;2023-05-10T05:37:49;14.50;99.90
9762;DHT22;4920;49.594;11.022;2023-05-10T05:40:20;14.70;99.90
9762;DHT22;4920;49.594;11.022;2023-05-10T05:42:52;14.80;99.90
9762;DHT22;4920;49.594;11.022;2023-05-10T05:45:21;14.90;99.90
9762;DHT22;4920;49.594;11.022;2023-05-10T05:47:50;14.90;99.90
9762;DHT22;4920;49.594;11.022;2023-05-10T05:50:21;15.10;99.90
9762;DHT22;4920;49.594;11.022;2023-05-10T05:52:50;15.20;99.90
9762;DHT22;4920;49.594;11.022;2023-05-10T05:55:21;15.10;99.90
9762;DHT22;4920;49.594;11.022;2023-05-10T05:57:59;15.10;99.90
9762;DHT22;4920;49.594;11.022;2023-05-10T06:00:28;15.10;99.90
9762;DHT22;4920;49.594;11.022;2023-05-10T06:02:57;15.10;99.90
9762;DHT22;4920;49.594;11.022;2023-05-10T06:05:29;15.10;99.90
9762;DHT22;4920;49.594;11.022;2023-05-10T06:07:59;15.20;99.90
9762;DHT22;4920;49.594;11.022;2023-05-10T06:10:30;15.20;99.90
9762;DHT22;4920;49.594;11.022;2023-05-10T06:12:58;15.20;99.90
9762;DHT22;4920;49.594;11.022;2023-05-10T06:15:27;15.20;99.90
9762;DHT22;4920;49.594;11.022;2023-05-10T06:17:56;15.30;99.90
9762;DHT22;4920;49.594;11.022;2023-05-10T06:20:25;15.30;99.90
9762;DHT22;4920;49.594;11.022;2023-05-10T06:22:54;15.30;99.90
9762;DHT22;4920;49.594;11.022;2023-05-10T06:25:23;15.30;99.90
9762;DHT22;4920;49.594;11.022;2023-05-10T06:27:53;15.30;99.90
9762;DHT22;4920;49.594;11.022;2023-05-10T06:30:25;15.30;99.90
9762;DHT22;4920;49.594;11.022;2023-05-10T06:32:56;15.40;99.90
9762;DHT22;4920;49.594;11.022;2023-05-10T06:35:25;15.60;99.90
9762;DHT22;4920;49.594;11.022;2023-05-10T06:37:55;15.80;99.90
9762;DHT22;4920;49.594;11.022;2023-05-10T06:40:23;15.90;99.90
9762;DHT22;4920;49.594;11.022;2023-05-10T06:42:53;16.10;99.90
9762;DHT22;4920;49.594;11.022;2023-05-10T06:45:22;16.30;99.90
9762;DHT22;4920;49.594;11.022;2023-05-10T06:47:52;16.50;99.90
9762;DHT22;4920;49.594;11.022;2023-05-10T06:50:21;16.70;99.90
9762;DHT22;4920;49.594;11.022;2023-05-10T06:52:50;16.80;99.90
9762;DHT22;4920;49.594;11.022;2023-05-10T06:55:19;17.00;99.90
9762;DHT22;4920;49.594;11.022;2023-05-10T06:57:48;17.00;99.90
9762;DHT22;4920;49.594;11.022;2023-05-10T07:00:20;17.20;99.90
9762;DHT22;4920;49.594;11.022;2023-05-10T07:02:49;17.30;99.90
9762;DHT22;4920;49.594;11.022;2023-05-10T07:05:19;17.50;99.90
9762;DHT22;4920;49.594;11.022;2023-05-10T07:07:48;17.60;99.90
9762;DHT22;4920;49.594;11.022;2023-05-10T07:10:17;17.70;99.90
9762;DHT22;4920;49.594;11.022;2023-05-10T07:12:46;17.60;99.90
9762;DHT22;4920;49.594;11.022;2023-05-10T07:15:15;17.70;99.90
9762;DHT22;4920;49.594;11.022;2023-05-10T07:17:46;17.90;99.90
9762;DHT22;4920;49.594;11.022;2023-05-10T07:20:15;18.10;99.90
9762;DHT22;4920;49.594;11.022;2023-05-10T07:22:44;18.20;99.90
9762;DHT22;4920;49.594;11.022;2023-05-10T07:25:14;18.30;99.90
9762;DHT22;4920;49.594;11.022;2023-05-10T07:27:43;18.30;99.90
9762;DHT22;4920;49.594;11.022;2023-05-10T07:30:13;18.50;99.90
9762;DHT22;4920;49.594;11.022;2023-05-10T07:32:43;18.70;99.90
9762;DHT22;4920;49.594;11.022;2023-05-10T07:35:17;18.90;99.90
9762;DHT22;4920;49.594;11.022;2023-05-10T07:37:46;19.20;99.90
9762;DHT22;4920;49.594;11.022;2023-05-10T07:40:15;19.30;99.90
9762;DHT22;4920;49.594;11.022;2023-05-10T07:43:11;19.40;99.90
9762;DHT22;4920;49.594;11.022;2023-05-10T07:45:40;19.30;99.90
9762;DHT22;4920;49.594;11.022;2023-05-10T07:48:12;19.00;99.90
9762;DHT22;4920;49.594;11.022;2023-05-10T07:50:43;18.50;99.90
9762;DHT22;4920;49.594;11.022;2023-05-10T07:53:12;18.20;99.90
9762;DHT22;4920;49.594;11.022;2023-05-10T07:55:40;17.90;99.90
9762;DHT22;4920;49.594;11.022;2023-05-10T07:58:09;17.70;99.90
9762;DHT22;4920;49.594;11.022;2023-05-10T08:00:38;17.50;99.90
9762;DHT22;4920;49.594;11.022;2023-05-10T08:03:08;17.30;99.90
9762;DHT22;4920;49.594;11.022;2023-05-10T08:05:37;17.20;99.90
9762;DHT22;4920;49.594;11.022;2023-05-10T08:08:08;17.10;99.90
9762;DHT22;4920;49.594;11.022;2023-05-10T08:10:38;17.00;99.90
9762;DHT22;4920;49.594;11.022;2023-05-10T08:16:50;16.90;99.90
9762;DHT22;4920;49.594;11.022;2023-05-10T08:19:19;16.80;99.90
9762;DHT22;4920;49.594;11.022;2023-05-10T08:21:48;16.80;99.90
9762;DHT22;4920;49.594;11.022;2023-05-10T08:24:22;16.80;99.90
9762;DHT22;4920;49.594;11.022;2023-05-10T08:30:21;17.10;99.90
9762;DHT22;4920;49.594;11.022;2023-05-10T08:32:50;17.30;99.90
9762;DHT22;4920;49.594;11.022;2023-05-10T08:35:19;17.40;99.90
9762;DHT22;4920;49.594;11.022;2023-05-10T08:37:48;17.50;99.90
9762;DHT22;4920;49.594;11.022;2023-05-10T08:40:19;17.60;99.90
9762;DHT22;4920;49.594;11.022;2023-05-10T08:42:53;17.60;99.90
9762;DHT22;4920;49.594;11.022;2023-05-10T08:45:27;17.70;99.90
9762;DHT22;4920;49.594;11.022;2023-05-10T08:47:59;17.70;99.90
9762;DHT22;4920;49.594;11.022;2023-05-10T08:50:30;17.50;99.90
9762;DHT22;4920;49.594;11.022;2023-05-10T08:53:00;17.40;99.90
9762;DHT22;4920;49.594;11.022;2023-05-10T08:55:47;17.30;99.90
9762;DHT22;4920;49.594;11.022;2023-05-10T08:58:21;17.10;99.90
9762;DHT22;4920;49.594;11.022;2023-05-10T09:00:52;17.10;99.90
9762;DHT22;4920;49.594;11.022;2023-05-10T09:03:21;16.80;99.90
9762;DHT22;4920;49.594;11.022;2023-05-10T09:05:52;16.60;99.90
9762;DHT22;4920;49.594;11.022;2023-05-10T09:08:23;16.20;99.90
9762;DHT22;4920;49.594;11.022;2023-05-10T09:10:57;15.90;99.90
9762;DHT22;4920;49.594;11.022;2023-05-10T09:13:48;15.80;99.90
9762;DHT22;4920;49.594;11.022;2023-05-10T09:20:36;16.30;99.90
9762;DHT22;4920;49.594;11.022;2023-05-10T09:23:05;16.80;99.90
9762;DHT22;4920;49.594;11.022;2023-05-10T09:25:34;17.10;99.90
9762;DHT22;4920;49.594;11.022;2023-05-10T09:28:49;17.50;99.90
9762;DHT22;4920;49.594;11.022;2023-05-10T09:34:09;18.50;99.90
9762;DHT22;4920;49.594;11.022;2023-05-10T09:36:50;18.90;99.90
9762;DHT22;4920;49.594;11.022;2023-05-10T09:39:30;19.50;99.90
9762;DHT22;4920;49.594;11.022;2023-05-10T09:42:02;20.00;99.90
9762;DHT22;4920;49.594;11.022;2023-05-10T09:44:34;20.50;99.90
9762;DHT22;4920;49.594;11.022;2023-05-10T09:47:07;20.70;99.90
9762;DHT22;4920;49.594;11.022;2023-05-10T09:49:40;20.50;99.90
9762;DHT22;4920;49.594;11.022;2023-05-10T09:52:21;20.20;99.90
9762;DHT22;4920;49.594;11.022;2023-05-10T09:54:57;20.10;99.90
9762;DHT22;4920;49.594;11.022;2023-05-10T09:57:27;19.80;99.90
9762;DHT22;4920;49.594;11.022;2023-05-10T10:00:00;19.60;99.90
9762;DHT22;4920;49.594;11.022;2023-05-10T10:02:39;19.30;99.90
9762;DHT22;4920;49.594;11.022;2023-05-10T10:05:13;19.30;99.90
9762;DHT22;4920;49.594;11.022;2023-05-10T10:07:44;19.30;99.90
9762;DHT22;4920;49.594;11.022;2023-05-10T10:10:17;19.50;99.90
9762;DHT22;4920;49.594;11.022;2023-05-10T10:13:16;19.60;99.90
9762;DHT22;4920;49.594;11.022;2023-05-10T10:15:47;19.70;99.90
9762;DHT22;4920;49.594;11.022;2023-05-10T10:18:19;19.60;99.90
9762;DHT22;4920;49.594;11.022;2023-05-10T10:21:00;19.70;99.90
9762;DHT22;4920;49.594;11.022;2023-05-10T10:23:30;20.00;99.90
9762;DHT22;4920;49.594;11.022;2023-05-10T10:26:28;20.20;99.90
9762;DHT22;4920;49.594;11.022;2023-05-10T10:29:34;20.30;99.90
9762;DHT22;4920;49.594;11.022;2023-05-10T10:32:24;20.30;99.90
9762;DHT22;4920;49.594;11.022;2023-05-10T10:35:51;20.30;99.90
9762;DHT22;4920;49.594;11.022;2023-05-10T10:39:08;20.40;99.90
9762;DHT22;4920;49.594;11.022;2023-05-10T10:42:04;20.90;99.90
9762;DHT22;4920;49.594;11.022;2023-05-10T10:44:48;21.30;99.90
9762;DHT22;4920;49.594;11.022;2023-05-10T10:47:30;21.40;99.90
9762;DHT22;4920;49.594;11.022;2023-05-10T10:50:05;21.00;99.90
9762;DHT22;4920;49.594;11.022;2023-05-10T10:52:36;20.90;99.90
9762;DHT22;4920;49.594;11.022;2023-05-10T10:55:06;20.70;99.90
9762;DHT22;4920;49.594;11.022;2023-05-10T10:57:46;20.50;99.90
9762;DHT22;4920;49.594;11.022;2023-05-10T11:00:21;20.40;99.90
9762;DHT22;4920;49.594;11.022;2023-05-10T11:02:53;20.60;99.90
9762;DHT22;4920;49.594;11.022;2023-05-10T11:08:16;20.60;99.90
9762;DHT22;4920;49.594;11.022;2023-05-10T11:10:53;20.60;99.90
9762;DHT22;4920;49.594;11.022;2023-05-10T11:13:29;20.60;99.90
9762;DHT22;4920;49.594;11.022;2023-05-10T11:16:16;20.70;99.90
9762;DHT22;4920;49.594;11.022;2023-05-10T11:18:59;20.80;99.90
9762;DHT22;4920;49.594;11.022;2023-05-10T11:21:30;21.10;99.90
9762;DHT22;4920;49.594;11.022;2023-05-10T11:24:00;21.20;99.90
9762;DHT22;4920;49.594;11.022;2023-05-10T11:26:34;21.10;99.90
9762;DHT22;4920;49.594;11.022;2023-05-10T11:29:04;21.10;99.90
9762;DHT22;4920;49.594;11.022;2023-05-10T11:31:33;21.10;99.90
9762;DHT22;4920;49.594;11.022;2023-05-10T11:34:03;21.00;99.90
9762;DHT22;4920;49.594;11.022;2023-05-10T11:36:33;21.00;99.90
9762;DHT22;4920;49.594;11.022;2023-05-10T11:39:03;21.00;99.90
9762;DHT22;4920;49.594;11.022;2023-05-10T11:41:32;20.80;99.90
9762;DHT22;4920;49.594;11.022;2023-05-10T11:44:01;20.70;99.90
9762;DHT22;4920;49.594;11.022;2023-05-10T11:46:30;20.70;99.90
9762;DHT22;4920;49.594;11.022;2023-05-10T11:49:01;20.90;99.90
9762;DHT22;4920;49.594;11.022;2023-05-10T11:51:35;21.00;99.90
9762;DHT22;4920;49.594;11.022;2023-05-10T11:57:27;20.90;99.90
9762;DHT22;4920;49.594;11.022;2023-05-10T11:59:57;20.90;99.90
9762;DHT22;4920;49.594;11.022;2023-05-10T12:02:28;21.10;99.90
9762;DHT22;4920;49.594;11.022;2023-05-10T12:05:09;21.20;99.90
9762;DHT22;4920;49.594;11.022;2023-05-10T12:08:26;21.40;99.90
9762;DHT22;4920;49.594;11.022;2023-05-10T12:12:11;21.60;99.90
9762;DHT22;4920;49.594;11.022;2023-05-10T12:15:18;21.80;99.90
9762;DHT22;4920;49.594;11.022;2023-05-10T12:17:48;21.70;99.90
9762;DHT22;4920;49.594;11.022;2023-05-10T12:20:18;21.60;99.90
9762;DHT22;4920;49.594;11.022;2023-05-10T12:22:51;21.70;99.90
9762;DHT22;4920;49.594;11.022;2023-05-10T12:25:23;21.70;99.90
9762;DHT22;4920;49.594;11.022;2023-05-10T12:27:53;21.60;99.90
9762;DHT22;4920;49.594;11.022;2023-05-10T12:30:27;21.60;99.90
9762;DHT22;4920;49.594;11.022;2023-05-10T12:33:00;21.60;99.90
9762;DHT22;4920;49.594;11.022;2023-05-10T12:35:31;21.50;99.90
9762;DHT22;4920;49.594;11.022;2023-05-10T12:38:32;21.50;99.90
9762;DHT22;4920;49.594;11.022;2023-05-10T12:41:03;21.40;99.90
9762;DHT22;4920;49.594;11.022;2023-05-10T12:43:32;21.40;99.90
9762;DHT22;4920;49.594;11.022;2023-05-10T12:46:06;21.30;99.90
9762;DHT22;4920;49.594;11.022;2023-05-10T12:48:35;21.20;99.90
9762;DHT22;4920;49.594;11.022;2023-05-10T12:51:05;21.20;99.90
9762;DHT22;4920;49.594;11.022;2023-05-10T12:53:37;21.30;99.90
9762;DHT22;4920;49.594;11.022;2023-05-10T12:56:12;21.50;99.90
9762;DHT22;4920;49.594;11.022;2023-05-10T12:58:41;21.50;99.90
9762;DHT22;4920;49.594;11.022;2023-05-10T13:01:15;21.50;99.90
9762;DHT22;4920;49.594;11.022;2023-05-10T13:03:44;21.40;99.90
9762;DHT22;4920;49.594;11.022;2023-05-10T13:06:13;21.40;99.90
9762;DHT22;4920;49.594;11.022;2023-05-10T13:08:42;21.40;99.90
9762;DHT22;4920;49.594;11.022;2023-05-10T13:11:12;21.20;99.90
9762;DHT22;4920;49.594;11.022;2023-05-10T13:13:43;21.10;99.90
9762;DHT22;4920;49.594;11.022;2023-05-10T13:16:12;21.00;99.90
9762;DHT22;4920;49.594;11.022;2023-05-10T13:18:41;20.80;99.90
9762;DHT22;4920;49.594;11.022;2023-05-10T13:21:11;20.60;99.90
9762;DHT22;4920;49.594;11.022;2023-05-10T13:23:40;20.30;99.90
9762;DHT22;4920;49.594;11.022;2023-05-10T13:26:09;20.00;99.90
9762;DHT22;4920;49.594;11.022;2023-05-10T13:28:48;19.60;99.90
9762;DHT22;4920;49.594;11.022;2023-05-10T13:31:19;19.20;99.90
9762;DHT22;4920;49.594;11.022;2023-05-10T13:33:48;18.90;99.90
9762;DHT22;4920;49.594;11.022;2023-05-10T13:36:17;18.70;99.90
9762;DHT22;4920;49.594;11.022;2023-05-10T13:38:45;18.60;99.90
9762;DHT22;4920;49.594;11.022;2023-05-10T13:41:14;18.50;99.90
9762;DHT22;4920;49.594;11.022;2023-05-10T13:43:44;18.60;99.90
9762;DHT22;4920;49.594;11.022;2023-05-10T13:46:15;18.60;99.90
9762;DHT22;4920;49.594;11.022;2023-05-10T13:48:44;18.70;99.90
9762;DHT22;4920;49.594;11.022;2023-05-10T13:51:16;18.80;99.90
9762;DHT22;4920;49.594;11.022;2023-05-10T13:53:48;19.00;99.90
9762;DHT22;4920;49.594;11.022;2023-05-10T13:56:20;19.20;99.90
9762;DHT22;4920;49.594;11.022;2023-05-10T13:58:56;19.40;99.90
9762;DHT22;4920;49.594;11.022;2023-05-10T14:01:25;19.70;99.90
9762;DHT22;4920;49.594;11.022;2023-05-10T14:03:54;19.80;99.90
9762;DHT22;4920;49.594;11.022;2023-05-10T14:06:23;19.90;99.90
9762;DHT22;4920;49.594;11.022;2023-05-10T14:08:52;20.00;99.90
9762;DHT22;4920;49.594;11.022;2023-05-10T14:11:20;20.00;99.90
9762;DHT22;4920;49.594;11.022;2023-05-10T14:13:51;19.80;99.90
9762;DHT22;4920;49.594;11.022;2023-05-10T14:16:21;19.00;99.90
9762;DHT22;4920;49.594;11.022;2023-05-10T14:18:50;17.90;99.90
9762;DHT22;4920;49.594;11.022;2023-05-10T14:21:19;17.20;99.90
9762;DHT22;4920;49.594;11.022;2023-05-10T14:23:47;16.60;99.90
9762;DHT22;4920;49.594;11.022;2023-05-10T14:26:18;16.20;99.90
9762;DHT22;4920;49.594;11.022;2023-05-10T14:28:47;15.90;99.90
9762;DHT22;4920;49.594;11.022;2023-05-10T14:31:16;15.80;99.90
9762;DHT22;4920;49.594;11.022;2023-05-10T14:33:49;15.80;99.90
9762;DHT22;4920;49.594;11.022;2023-05-10T14:36:44;15.80;99.90
9762;DHT22;4920;49.594;11.022;2023-05-10T14:39:13;15.90;99.90
9762;DHT22;4920;49.594;11.022;2023-05-10T14:41:42;15.90;99.90
9762;DHT22;4920;49.594;11.022;2023-05-10T14:44:11;15.90;99.90
9762;DHT22;4920;49.594;11.022;2023-05-10T14:46:40;15.90;99.90
9762;DHT22;4920;49.594;11.022;2023-05-10T14:49:11;15.80;99.90
9762;DHT22;4920;49.594;11.022;2023-05-10T14:51:39;15.60;99.90
9762;DHT22;4920;49.594;11.022;2023-05-10T14:54:08;15.70;99.90
9762;DHT22;4920;49.594;11.022;2023-05-10T14:56:38;15.80;99.90
9762;DHT22;4920;49.594;11.022;2023-05-10T14:59:08;16.00;99.90
9762;DHT22;4920;49.594;11.022;2023-05-10T15:01:38;16.20;99.90
9762;DHT22;4920;49.594;11.022;2023-05-10T15:04:11;16.10;99.90
9762;DHT22;4920;49.594;11.022;2023-05-10T15:06:41;15.90;99.90
9762;DHT22;4920;49.594;11.022;2023-05-10T15:09:10;15.60;99.90
9762;DHT22;4920;49.594;11.022;2023-05-10T15:11:38;15.10;99.90
9762;DHT22;4920;49.594;11.022;2023-05-10T15:14:07;14.70;99.90
9762;DHT22;4920;49.594;11.022;2023-05-10T15:16:36;14.50;99.90
9762;DHT22;4920;49.594;11.022;2023-05-10T15:19:05;14.20;99.90
9762;DHT22;4920;49.594;11.022;2023-05-10T15:21:35;13.90;99.90
9762;DHT22;4920;49.594;11.022;2023-05-10T15:24:06;13.60;99.90
9762;DHT22;4920;49.594;11.022;2023-05-10T15:26:35;13.30;99.90
9762;DHT22;4920;49.594;11.022;2023-05-10T15:29:03;13.20;99.90
9762;DHT22;4920;49.594;11.022;2023-05-10T15:31:32;13.20;99.90
9762;DHT22;4920;49.594;11.022;2023-05-10T15:34:03;13.10;99.90
9762;DHT22;4920;49.594;11.022;2023-05-10T15:36:31;13.10;99.90
9762;DHT22;4920;49.594;11.022;2023-05-10T15:39:02;13.10;99.90
9762;DHT22;4920;49.594;11.022;2023-05-10T15:41:31;13.10;99.90
9762;DHT22;4920;49.594;11.022;2023-05-10T15:44:00;13.10;99.90
9762;DHT22;4920;49.594;11.022;2023-05-10T15:46:29;13.10;99.90
9762;DHT22;4920;49.594;11.022;2023-05-10T15:48:58;13.20;99.90
9762;DHT22;4920;49.594;11.022;2023-05-10T15:51:27;13.20;99.90
9762;DHT22;4920;49.594;11.022;2023-05-10T15:53:55;13.20;99.90
9762;DHT22;4920;49.594;11.022;2023-05-10T15:56:35;13.20;99.90
9762;DHT22;4920;49.594;11.022;2023-05-10T15:59:04;13.20;99.90
9762;DHT22;4920;49.594;11.022;2023-05-10T16:01:34;13.20;99.90
9762;DHT22;4920;49.594;11.022;2023-05-10T16:04:03;13.30;99.90
9762;DHT22;4920;49.594;11.022;2023-05-10T16:06:32;13.40;99.90
9762;DHT22;4920;49.594;11.022;2023-05-10T16:09:01;13.50;99.90
9762;DHT22;4920;49.594;11.022;2023-05-10T16:11:29;13.60;99.90
9762;DHT22;4920;49.594;11.022;2023-05-10T16:14:00;13.70;99.90
9762;DHT22;4920;49.594;11.022;2023-05-10T16:16:29;13.80;99.90
9762;DHT22;4920;49.594;11.022;2023-05-10T16:18:58;13.90;99.90
9762;DHT22;4920;49.594;11.022;2023-05-10T16:21:31;14.00;99.90
9762;DHT22;4920;49.594;11.022;2023-05-10T16:23:59;14.10;99.90
9762;DHT22;4920;49.594;11.022;2023-05-10T16:26:28;14.20;99.90
9762;DHT22;4920;49.594;11.022;2023-05-10T16:29:00;14.40;99.90
9762;DHT22;4920;49.594;11.022;2023-05-10T16:31:28;14.40;99.90
9762;DHT22;4920;49.594;11.022;2023-05-10T16:33:57;14.50;99.90
9762;DHT22;4920;49.594;11.022;2023-05-10T16:36:26;14.50;99.90
9762;DHT22;4920;49.594;11.022;2023-05-10T16:38:55;14.50;99.90